sensor_id;sensor_type;location;lat;lon;timestamp;temperature;humidity
64396;DHT22;50717;53.360;6.290;2023-07-09T00:01:51;21.30;99.90
64396;DHT22;50717;53.360;6.290;2023-07-09T00:04:17;20.90;99.90
64396;DHT22;50717;53.360;6.290;2023-07-09T00:06:43;21.40;99.90
64396;DHT22;50717;53.360;6.290;2023-07-09T00:09:20;21.40;99.90
64396;DHT22;50717;53.360;6.290;2023-07-09T00:11:47;20.90;99.90
64396;DHT22;50717;53.360;6.290;2023-07-09T00:14:15;21.10;99.90
64396;DHT22;50717;53.360;6.290;2023-07-09T00:16:42;20.80;99.90
64396;DHT22;50717;53.360;6.290;2023-07-09T00:19:12;21.20;99.90
64396;DHT22;50717;53.360;6.290;2023-07-09T00:21:40;20.90;99.90
64396;DHT22;50717;53.360;6.290;2023-07-09T00:24:07;21.30;99.90
64396;DHT22;50717;53.360;6.290;2023-07-09T00:26:36;20.80;99.90
64396;DHT22;50717;53.360;6.290;2023-07-09T00:29:04;21.10;99.90
64396;DHT22;50717;53.360;6.290;2023-07-09T00:31:30;21.00;99.90
64396;DHT22;50717;53.360;6.290;2023-07-09T00:33:55;21.00;99.90
64396;DHT22;50717;53.360;6.290;2023-07-09T00:36:29;20.80;99.90
64396;DHT22;50717;53.360;6.290;2023-07-09T00:38:58;21.00;99.90
64396;DHT22;50717;53.360;6.290;2023-07-09T00:41:36;21.10;99.90
64396;DHT22;50717;53.360;6.290;2023-07-09T00:44:27;20.90;99.90
64396;DHT22;50717;53.360;6.290;2023-07-09T00:49:33;20.80;99.90
64396;DHT22;50717;53.360;6.290;2023-07-09T00:52:03;20.80;99.90
64396;DHT22;50717;53.360;6.290;2023-07-09T00:54:34;20.60;99.90
64396;DHT22;50717;53.360;6.290;2023-07-09T00:57:08;20.90;99.90
64396;DHT22;50717;53.360;6.290;2023-07-09T00:59:34;20.60;99.90
64396;DHT22;50717;53.360;6.290;2023-07-09T01:02:00;21.00;99.90
64396;DHT22;50717;53.360;6.290;2023-07-09T01:04:27;20.90;99.90
64396;DHT22;50717;53.360;6.290;2023-07-09T01:06:55;20.80;99.90
64396;DHT22;50717;53.360;6.290;2023-07-09T01:09:22;20.70;99.90
64396;DHT22;50717;53.360;6.290;2023-07-09T01:11:48;20.90;99.90
64396;DHT22;50717;53.360;6.290;2023-07-09T01:14:16;20.60;99.90
64396;DHT22;50717;53.360;6.290;2023-07-09T01:16:48;20.70;99.90
64396;DHT22;50717;53.360;6.290;2023-07-09T01:19:14;20.70;99.90
64396;DHT22;50717;53.360;6.290;2023-07-09T01:21:42;20.80;99.90
64396;DHT22;50717;53.360;6.290;2023-07-09T01:24:16;20.50;99.90
64396;DHT22;50717;53.360;6.290;2023-07-09T01:27:02;20.80;99.90
64396;DHT22;50717;53.360;6.290;2023-07-09T01:29:33;20.70;99.90
64396;DHT22;50717;53.360;6.290;2023-07-09T01:31:59;20.50;99.90
64396;DHT22;50717;53.360;6.290;2023-07-09T01:34:25;20.40;99.90
64396;DHT22;50717;53.360;6.290;2023-07-09T01:36:51;20.70;99.90
64396;DHT22;50717;53.360;6.290;2023-07-09T01:39:17;20.60;99.90
64396;DHT22;50717;53.360;6.290;2023-07-09T01:41:44;20.90;99.90
64396;DHT22;50717;53.360;6.290;2023-07-09T01:44:10;20.80;99.90
64396;DHT22;50717;53.360;6.290;2023-07-09T01:46:37;20.40;99.90
64396;DHT22;50717;53.360;6.290;2023-07-09T01:49:02;20.50;99.90
64396;DHT22;50717;53.360;6.290;2023-07-09T01:51:29;20.70;99.90
64396;DHT22;50717;53.360;6.290;2023-07-09T01:53:54;20.40;99.90
64396;DHT22;50717;53.360;6.290;2023-07-09T01:56:20;20.20;99.90
64396;DHT22;50717;53.360;6.290;2023-07-09T01:58:46;20.30;99.90
64396;DHT22;50717;53.360;6.290;2023-07-09T02:01:13;20.40;99.90
64396;DHT22;50717;53.360;6.290;2023-07-09T02:03:40;20.50;99.90
64396;DHT22;50717;53.360;6.290;2023-07-09T02:06:06;20.00;99.90
64396;DHT22;50717;53.360;6.290;2023-07-09T02:08:35;20.30;99.90
64396;DHT22;50717;53.360;6.290;2023-07-09T02:11:01;20.50;99.90
64396;DHT22;50717;53.360;6.290;2023-07-09T02:13:27;20.30;99.90
64396;DHT22;50717;53.360;6.290;2023-07-09T02:15:52;20.10;99.90
64396;DHT22;50717;53.360;6.290;2023-07-09T02:18:18;20.10;99.90
64396;DHT22;50717;53.360;6.290;2023-07-09T02:20:46;20.10;99.90
64396;DHT22;50717;53.360;6.290;2023-07-09T02:23:12;20.00;99.90
64396;DHT22;50717;53.360;6.290;2023-07-09T02:25:37;19.80;99.90
64396;DHT22;50717;53.360;6.290;2023-07-09T02:28:03;19.90;99.90
64396;DHT22;50717;53.360;6.290;2023-07-09T02:30:29;19.60;99.90
64396;DHT22;50717;53.360;6.290;2023-07-09T02:32:55;19.90;99.90
64396;DHT22;50717;53.360;6.290;2023-07-09T02:35:22;19.70;99.90
64396;DHT22;50717;53.360;6.290;2023-07-09T02:37:48;20.00;99.90
64396;DHT22;50717;53.360;6.290;2023-07-09T02:40:15;20.00;99.90
64396;DHT22;50717;53.360;6.290;2023-07-09T02:42:40;19.80;99.90
64396;DHT22;50717;53.360;6.290;2023-07-09T02:45:07;19.80;99.90
64396;DHT22;50717;53.360;6.290;2023-07-09T02:47:33;19.90;99.90
64396;DHT22;50717;53.360;6.290;2023-07-09T02:49:58;19.90;99.90
64396;DHT22;50717;53.360;6.290;2023-07-09T02:52:24;19.90;99.90
64396;DHT22;50717;53.360;6.290;2023-07-09T02:54:50;20.00;99.90
64396;DHT22;50717;53.360;6.290;2023-07-09T02:57:16;19.80;99.90
64396;DHT22;50717;53.360;6.290;2023-07-09T02:59:42;19.50;99.90
64396;DHT22;50717;53.360;6.290;2023-07-09T03:02:07;20.00;99.90
64396;DHT22;50717;53.360;6.290;2023-07-09T03:04:33;19.80;99.90
64396;DHT22;50717;53.360;6.290;2023-07-09T03:06:59;19.80;99.90
64396;DHT22;50717;53.360;6.290;2023-07-09T03:09:25;19.90;99.90
64396;DHT22;50717;53.360;6.290;2023-07-09T03:11:51;19.60;99.90
64396;DHT22;50717;53.360;6.290;2023-07-09T03:14:17;19.50;99.90
64396;DHT22;50717;53.360;6.290;2023-07-09T03:16:42;19.70;99.90
64396;DHT22;50717;53.360;6.290;2023-07-09T03:19:08;19.60;99.90
64396;DHT22;50717;53.360;6.290;2023-07-09T03:21:34;19.60;99.90
64396;DHT22;50717;53.360;6.290;2023-07-09T03:24:00;19.30;99.90
64396;DHT22;50717;53.360;6.290;2023-07-09T03:26:26;19.70;99.90
64396;DHT22;50717;53.360;6.290;2023-07-09T03:28:53;19.50;99.90
64396;DHT22;50717;53.360;6.290;2023-07-09T03:31:19;19.70;99.90
64396;DHT22;50717;53.360;6.290;2023-07-09T03:33:47;19.30;99.90
64396;DHT22;50717;53.360;6.290;2023-07-09T03:36:13;19.60;99.90
64396;DHT22;50717;53.360;6.290;2023-07-09T03:38:38;19.50;99.90
64396;DHT22;50717;53.360;6.290;2023-07-09T03:41:04;19.40;99.90
64396;DHT22;50717;53.360;6.290;2023-07-09T03:43:30;19.40;99.90
64396;DHT22;50717;53.360;6.290;2023-07-09T03:45:56;19.10;99.90
64396;DHT22;50717;53.360;6.290;2023-07-09T03:48:21;19.20;99.90
64396;DHT22;50717;53.360;6.290;2023-07-09T03:50:48;19.50;99.90
64396;DHT22;50717;53.360;6.290;2023-07-09T03:53:14;19.60;99.90
64396;DHT22;50717;53.360;6.290;2023-07-09T03:55:40;19.50;99.90
64396;DHT22;50717;53.360;6.290;2023-07-09T03:58:06;19.40;99.90
64396;DHT22;50717;53.360;6.290;2023-07-09T04:00:32;19.20;99.90
64396;DHT22;50717;53.360;6.290;2023-07-09T04:02:58;19.30;99.90
64396;DHT22;50717;53.360;6.290;2023-07-09T04:05:25;19.40;99.90
64396;DHT22;50717;53.360;6.290;2023-07-09T04:07:51;19.70;99.90
64396;DHT22;50717;53.360;6.290;2023-07-09T04:10:17;19.40;99.90
64396;DHT22;50717;53.360;6.290;2023-07-09T04:12:43;19.70;99.90
64396;DHT22;50717;53.360;6.290;2023-07-09T04:15:10;19.70;99.90
64396;DHT22;50717;53.360;6.290;2023-07-09T04:17:39;19.80;99.90
64396;DHT22;50717;53.360;6.290;2023-07-09T04:20:06;19.60;99.90
64396;DHT22;50717;53.360;6.290;2023-07-09T04:22:33;19.80;99.90
64396;DHT22;50717;53.360;6.290;2023-07-09T04:25:00;19.50;99.90
64396;DHT22;50717;53.360;6.290;2023-07-09T04:27:28;19.50;99.90
64396;DHT22;50717;53.360;6.290;2023-07-09T04:29:54;19.70;99.90
64396;DHT22;50717;53.360;6.290;2023-07-09T04:32:20;20.00;99.90
64396;DHT22;50717;53.360;6.290;2023-07-09T04:34:46;20.00;99.90
64396;DHT22;50717;53.360;6.290;2023-07-09T04:37:12;20.00;99.90
64396;DHT22;50717;53.360;6.290;2023-07-09T04:39:39;20.10;99.90
64396;DHT22;50717;53.360;6.290;2023-07-09T04:42:14;20.40;99.90
64396;DHT22;50717;53.360;6.290;2023-07-09T04:44:40;20.10;99.90
64396;DHT22;50717;53.360;6.290;2023-07-09T04:47:06;20.50;99.90
64396;DHT22;50717;53.360;6.290;2023-07-09T04:49:32;20.10;99.90
64396;DHT22;50717;53.360;6.290;2023-07-09T04:51:58;20.70;99.90
64396;DHT22;50717;53.360;6.290;2023-07-09T04:54:25;20.10;99.90
64396;DHT22;50717;53.360;6.290;2023-07-09T04:56:51;20.40;99.90
64396;DHT22;50717;53.360;6.290;2023-07-09T04:59:16;21.00;99.90
64396;DHT22;50717;53.360;6.290;2023-07-09T05:01:42;20.60;99.90
64396;DHT22;50717;53.360;6.290;2023-07-09T05:04:08;20.30;99.90
64396;DHT22;50717;53.360;6.290;2023-07-09T05:06:34;20.80;99.90
64396;DHT22;50717;53.360;6.290;2023-07-09T05:09:00;20.90;99.90
64396;DHT22;50717;53.360;6.290;2023-07-09T05:11:26;20.60;99.90
64396;DHT22;50717;53.360;6.290;2023-07-09T05:13:51;20.50;99.90
64396;DHT22;50717;53.360;6.290;2023-07-09T05:16:17;20.50;99.90
64396;DHT22;50717;53.360;6.290;2023-07-09T05:18:45;20.70;99.90
64396;DHT22;50717;53.360;6.290;2023-07-09T05:21:11;20.80;99.90
64396;DHT22;50717;53.360;6.290;2023-07-09T05:23:36;20.70;99.90
64396;DHT22;50717;53.360;6.290;2023-07-09T05:26:03;20.90;99.90
64396;DHT22;50717;53.360;6.290;2023-07-09T05:28:30;21.20;99.90
64396;DHT22;50717;53.360;6.290;2023-07-09T05:30:57;21.30;99.90
64396;DHT22;50717;53.360;6.290;2023-07-09T05:33:22;21.40;99.90
64396;DHT22;50717;53.360;6.290;2023-07-09T05:35:48;21.10;99.90
64396;DHT22;50717;53.360;6.290;2023-07-09T05:38:14;21.40;99.90
64396;DHT22;50717;53.360;6.290;2023-07-09T05:40:41;21.30;99.90
64396;DHT22;50717;53.360;6.290;2023-07-09T05:43:07;21.60;99.90
64396;DHT22;50717;53.360;6.290;2023-07-09T05:45:33;21.70;99.90
64396;DHT22;50717;53.360;6.290;2023-07-09T05:47:59;21.60;99.90
64396;DHT22;50717;53.360;6.290;2023-07-09T05:50:25;21.80;99.90
64396;DHT22;50717;53.360;6.290;2023-07-09T05:52:51;21.90;99.90
64396;DHT22;50717;53.360;6.290;2023-07-09T05:55:17;22.00;99.90
64396;DHT22;50717;53.360;6.290;2023-07-09T05:57:43;22.00;99.90
64396;DHT22;50717;53.360;6.290;2023-07-09T06:00:09;22.00;99.90
64396;DHT22;50717;53.360;6.290;2023-07-09T06:02:35;22.40;99.90
64396;DHT22;50717;53.360;6.290;2023-07-09T06:05:01;22.20;99.90
64396;DHT22;50717;53.360;6.290;2023-07-09T06:07:27;22.40;99.90
64396;DHT22;50717;53.360;6.290;2023-07-09T06:09:53;22.40;99.90
64396;DHT22;50717;53.360;6.290;2023-07-09T06:12:19;22.60;99.90
64396;DHT22;50717;53.360;6.290;2023-07-09T06:14:48;22.50;99.90
64396;DHT22;50717;53.360;6.290;2023-07-09T06:17:13;22.40;99.90
64396;DHT22;50717;53.360;6.290;2023-07-09T06:19:39;22.60;99.90
64396;DHT22;50717;53.360;6.290;2023-07-09T06:22:05;22.20;99.90
64396;DHT22;50717;53.360;6.290;2023-07-09T06:24:31;22.90;99.90
64396;DHT22;50717;53.360;6.290;2023-07-09T06:26:57;22.80;99.90
64396;DHT22;50717;53.360;6.290;2023-07-09T06:29:23;23.30;99.90
64396;DHT22;50717;53.360;6.290;2023-07-09T06:31:48;23.20;99.90
64396;DHT22;50717;53.360;6.290;2023-07-09T06:34:14;23.10;99.90
64396;DHT22;50717;53.360;6.290;2023-07-09T06:36:40;23.30;99.90
64396;DHT22;50717;53.360;6.290;2023-07-09T06:39:06;23.40;99.90
64396;DHT22;50717;53.360;6.290;2023-07-09T06:41:31;23.60;99.90
64396;DHT22;50717;53.360;6.290;2023-07-09T06:44:05;23.70;99.90
64396;DHT22;50717;53.360;6.290;2023-07-09T06:46:31;24.10;99.90
64396;DHT22;50717;53.360;6.290;2023-07-09T06:48:57;23.90;99.90
64396;DHT22;50717;53.360;6.290;2023-07-09T06:51:22;24.00;99.90
64396;DHT22;50717;53.360;6.290;2023-07-09T06:53:48;23.90;99.90
64396;DHT22;50717;53.360;6.290;2023-07-09T06:56:16;24.00;99.90
64396;DHT22;50717;53.360;6.290;2023-07-09T06:58:42;23.80;99.90
64396;DHT22;50717;53.360;6.290;2023-07-09T07:01:08;23.70;99.90
64396;DHT22;50717;53.360;6.290;2023-07-09T07:03:36;24.10;99.90
64396;DHT22;50717;53.360;6.290;2023-07-09T07:06:02;24.10;99.90
64396;DHT22;50717;53.360;6.290;2023-07-09T07:08:28;23.90;99.90
64396;DHT22;50717;53.360;6.290;2023-07-09T07:10:56;24.40;99.90
64396;DHT22;50717;53.360;6.290;2023-07-09T07:13:33;24.50;99.90
64396;DHT22;50717;53.360;6.290;2023-07-09T07:16:01;24.60;99.90
64396;DHT22;50717;53.360;6.290;2023-07-09T07:18:26;24.50;99.90
64396;DHT22;50717;53.360;6.290;2023-07-09T07:20:52;25.00;99.90
64396;DHT22;50717;53.360;6.290;2023-07-09T07:23:18;25.40;99.90
64396;DHT22;50717;53.360;6.290;2023-07-09T07:25:47;25.50;99.90
64396;DHT22;50717;53.360;6.290;2023-07-09T07:28:14;25.70;99.90
64396;DHT22;50717;53.360;6.290;2023-07-09T07:30:40;25.70;99.90
64396;DHT22;50717;53.360;6.290;2023-07-09T07:33:05;25.60;99.90
64396;DHT22;50717;53.360;6.290;2023-07-09T07:35:31;25.70;99.90
64396;DHT22;50717;53.360;6.290;2023-07-09T07:37:57;25.70;99.90
64396;DHT22;50717;53.360;6.290;2023-07-09T07:40:23;25.50;99.90
64396;DHT22;50717;53.360;6.290;2023-07-09T07:42:49;25.50;99.90
64396;DHT22;50717;53.360;6.290;2023-07-09T07:45:14;25.20;99.90
64396;DHT22;50717;53.360;6.290;2023-07-09T07:47:40;25.40;99.90
64396;DHT22;50717;53.360;6.290;2023-07-09T07:50:07;25.50;99.90
64396;DHT22;50717;53.360;6.290;2023-07-09T07:52:33;25.30;99.90
64396;DHT22;50717;53.360;6.290;2023-07-09T07:55:11;25.50;99.90
64396;DHT22;50717;53.360;6.290;2023-07-09T07:57:37;25.70;99.90
64396;DHT22;50717;53.360;6.290;2023-07-09T08:00:03;26.30;99.90
64396;DHT22;50717;53.360;6.290;2023-07-09T08:02:29;25.90;99.90
64396;DHT22;50717;53.360;6.290;2023-07-09T08:04:54;26.40;99.90
64396;DHT22;50717;53.360;6.290;2023-07-09T08:07:20;26.50;99.90
64396;DHT22;50717;53.360;6.290;2023-07-09T08:09:47;26.40;99.90
64396;DHT22;50717;53.360;6.290;2023-07-09T08:12:13;26.30;99.90
64396;DHT22;50717;53.360;6.290;2023-07-09T08:14:41;26.60;99.90
64396;DHT22;50717;53.360;6.290;2023-07-09T08:17:07;26.30;99.90
64396;DHT22;50717;53.360;6.290;2023-07-09T08:19:44;26.00;99.90
64396;DHT22;50717;53.360;6.290;2023-07-09T08:22:10;26.70;99.90
64396;DHT22;50717;53.360;6.290;2023-07-09T08:24:36;26.60;99.90
64396;DHT22;50717;53.360;6.290;2023-07-09T08:27:02;26.50;99.90
64396;DHT22;50717;53.360;6.290;2023-07-09T08:29:28;26.50;99.90
64396;DHT22;50717;53.360;6.290;2023-07-09T08:31:54;27.80;99.90
64396;DHT22;50717;53.360;6.290;2023-07-09T08:34:20;26.60;99.90
64396;DHT22;50717;53.360;6.290;2023-07-09T08:36:45;26.40;99.90
64396;DHT22;50717;53.360;6.290;2023-07-09T08:39:11;26.50;99.90
64396;DHT22;50717;53.360;6.290;2023-07-09T08:41:45;26.80;99.90
64396;DHT22;50717;53.360;6.290;2023-07-09T08:47:06;26.60;99.90
64396;DHT22;50717;53.360;6.290;2023-07-09T08:49:58;27.00;99.90
64396;DHT22;50717;53.360;6.290;2023-07-09T08:52:41;27.20;99.90
64396;DHT22;50717;53.360;6.290;2023-07-09T08:55:18;27.20;99.90
64396;DHT22;50717;53.360;6.290;2023-07-09T08:57:52;26.90;99.90
64396;DHT22;50717;53.360;6.290;2023-07-09T09:00:30;26.90;99.90
64396;DHT22;50717;53.360;6.290;2023-07-09T09:02:59;27.30;99.90
64396;DHT22;50717;53.360;6.290;2023-07-09T09:05:26;27.20;99.90
64396;DHT22;50717;53.360;6.290;2023-07-09T09:07:55;26.90;99.90
64396;DHT22;50717;53.360;6.290;2023-07-09T09:10:40;26.90;99.90
64396;DHT22;50717;53.360;6.290;2023-07-09T09:13:11;27.30;99.90
64396;DHT22;50717;53.360;6.290;2023-07-09T09:15:40;27.30;99.90
64396;DHT22;50717;53.360;6.290;2023-07-09T09:18:22;27.70;99.90
64396;DHT22;50717;53.360;6.290;2023-07-09T09:21:16;27.70;99.90
64396;DHT22;50717;53.360;6.290;2023-07-09T09:23:43;27.20;99.90
64396;DHT22;50717;53.360;6.290;2023-07-09T09:26:30;27.40;99.90
64396;DHT22;50717;53.360;6.290;2023-07-09T09:28:56;27.20;99.90
64396;DHT22;50717;53.360;6.290;2023-07-09T09:31:28;27.30;99.90
64396;DHT22;50717;53.360;6.290;2023-07-09T09:33:54;27.80;99.90
64396;DHT22;50717;53.360;6.290;2023-07-09T09:36:23;27.90;99.90
64396;DHT22;50717;53.360;6.290;2023-07-09T09:38:50;27.70;99.90
64396;DHT22;50717;53.360;6.290;2023-07-09T09:41:30;27.70;99.90
64396;DHT22;50717;53.360;6.290;2023-07-09T09:43:56;28.60;99.90
64396;DHT22;50717;53.360;6.290;2023-07-09T09:46:26;27.70;99.90
64396;DHT22;50717;53.360;6.290;2023-07-09T09:48:59;27.30;99.90
64396;DHT22;50717;53.360;6.290;2023-07-09T09:51:25;27.40;99.90
64396;DHT22;50717;53.360;6.290;2023-07-09T09:54:00;27.20;99.90
64396;DHT22;50717;53.360;6.290;2023-07-09T09:56:29;27.30;99.90
64396;DHT22;50717;53.360;6.290;2023-07-09T09:58:56;27.80;99.90
64396;DHT22;50717;53.360;6.290;2023-07-09T10:01:30;26.90;99.90
64396;DHT22;50717;53.360;6.290;2023-07-09T10:03:58;27.50;99.90
64396;DHT22;50717;53.360;6.290;2023-07-09T10:06:37;27.30;99.90
64396;DHT22;50717;53.360;6.290;2023-07-09T10:11:46;27.70;99.90
64396;DHT22;50717;53.360;6.290;2023-07-09T10:14:31;27.60;99.90
64396;DHT22;50717;53.360;6.290;2023-07-09T10:17:23;27.40;99.90
64396;DHT22;50717;53.360;6.290;2023-07-09T10:19:57;27.20;99.90
64396;DHT22;50717;53.360;6.290;2023-07-09T10:22:49;27.30;99.90
64396;DHT22;50717;53.360;6.290;2023-07-09T10:27:59;27.50;99.90
64396;DHT22;50717;53.360;6.290;2023-07-09T10:33:12;27.20;99.90
64396;DHT22;50717;53.360;6.290;2023-07-09T10:39:44;27.60;99.90
64396;DHT22;50717;53.360;6.290;2023-07-09T10:42:30;27.30;99.90
64396;DHT22;50717;53.360;6.290;2023-07-09T10:45:02;27.50;99.90
64396;DHT22;50717;53.360;6.290;2023-07-09T10:47:47;27.20;99.90
64396;DHT22;50717;53.360;6.290;2023-07-09T10:50:46;27.70;99.90
64396;DHT22;50717;53.360;6.290;2023-07-09T11:01:25;27.90;99.90
64396;DHT22;50717;53.360;6.290;2023-07-09T11:04:00;28.30;99.90
64396;DHT22;50717;53.360;6.290;2023-07-09T11:08:59;28.60;99.90
64396;DHT22;50717;53.360;6.290;2023-07-09T11:11:36;28.80;99.90
64396;DHT22;50717;53.360;6.290;2023-07-09T11:14:10;29.00;99.90
64396;DHT22;50717;53.360;6.290;2023-07-09T11:16:41;28.50;99.90
64396;DHT22;50717;53.360;6.290;2023-07-09T11:19:16;28.80;99.90
64396;DHT22;50717;53.360;6.290;2023-07-09T11:24:46;28.80;99.90
64396;DHT22;50717;53.360;6.290;2023-07-09T11:27:18;28.80;99.90
64396;DHT22;50717;53.360;6.290;2023-07-09T11:29:55;29.30;99.90
64396;DHT22;50717;53.360;6.290;2023-07-09T11:32:22;29.30;99.90
64396;DHT22;50717;53.360;6.290;2023-07-09T11:34:48;29.20;99.90
64396;DHT22;50717;53.360;6.290;2023-07-09T11:37:15;29.20;99.90
64396;DHT22;50717;53.360;6.290;2023-07-09T11:39:44;29.60;99.90
64396;DHT22;50717;53.360;6.290;2023-07-09T11:42:34;29.40;99.90
64396;DHT22;50717;53.360;6.290;2023-07-09T11:45:09;29.70;99.90
64396;DHT22;50717;53.360;6.290;2023-07-09T11:47:40;29.50;99.90
64396;DHT22;50717;53.360;6.290;2023-07-09T11:50:21;29.20;99.90
64396;DHT22;50717;53.360;6.290;2023-07-09T11:53:26;29.40;99.90
64396;DHT22;50717;53.360;6.290;2023-07-09T11:55:53;29.30;99.90
64396;DHT22;50717;53.360;6.290;2023-07-09T11:58:19;29.20;99.90
64396;DHT22;50717;53.360;6.290;2023-07-09T12:00:54;29.10;99.90
64396;DHT22;50717;53.360;6.290;2023-07-09T12:03:32;29.50;99.90
64396;DHT22;50717;53.360;6.290;2023-07-09T12:06:04;29.30;99.90
64396;DHT22;50717;53.360;6.290;2023-07-09T12:08:32;29.50;99.90
64396;DHT22;50717;53.360;6.290;2023-07-09T12:10:59;29.80;99.90
64396;DHT22;50717;53.360;6.290;2023-07-09T12:13:24;30.10;99.90
64396;DHT22;50717;53.360;6.290;2023-07-09T12:15:50;29.80;99.90
64396;DHT22;50717;53.360;6.290;2023-07-09T12:18:16;29.50;99.90
64396;DHT22;50717;53.360;6.290;2023-07-09T12:20:48;30.10;99.90
64396;DHT22;50717;53.360;6.290;2023-07-09T12:23:22;29.80;99.90
64396;DHT22;50717;53.360;6.290;2023-07-09T12:25:52;29.50;99.90
64396;DHT22;50717;53.360;6.290;2023-07-09T12:28:19;29.50;99.90
64396;DHT22;50717;53.360;6.290;2023-07-09T12:30:50;29.40;99.90
64396;DHT22;50717;53.360;6.290;2023-07-09T12:33:21;29.70;99.90
64396;DHT22;50717;53.360;6.290;2023-07-09T12:35:53;29.60;99.90
64396;DHT22;50717;53.360;6.290;2023-07-09T12:38:25;29.20;99.90
64396;DHT22;50717;53.360;6.290;2023-07-09T12:40:52;29.60;99.90
64396;DHT22;50717;53.360;6.290;2023-07-09T12:43:29;29.50;99.90
64396;DHT22;50717;53.360;6.290;2023-07-09T12:45:58;29.60;99.90
64396;DHT22;50717;53.360;6.290;2023-07-09T12:48:27;29.80;99.90
64396;DHT22;50717;53.360;6.290;2023-07-09T12:50:56;29.50;99.90
64396;DHT22;50717;53.360;6.290;2023-07-09T12:53:24;29.70;99.90
64396;DHT22;50717;53.360;6.290;2023-07-09T12:55:58;29.80;99.90
64396;DHT22;50717;53.360;6.290;2023-07-09T12:58:27;29.50;99.90
64396;DHT22;50717;53.360;6.290;2023-07-09T13:00:54;29.60;99.90
64396;DHT22;50717;53.360;6.290;2023-07-09T13:03:28;29.50;99.90
64396;DHT22;50717;53.360;6.290;2023-07-09T13:06:07;29.60;99.90
64396;DHT22;50717;53.360;6.290;2023-07-09T13:08:58;29.20;99.90
64396;DHT22;50717;53.360;6.290;2023-07-09T13:11:25;28.70;99.90
64396;DHT22;50717;53.360;6.290;2023-07-09T13:13:56;28.90;99.90
64396;DHT22;50717;53.360;6.290;2023-07-09T13:16:21;29.50;99.90
64396;DHT22;50717;53.360;6.290;2023-07-09T13:18:47;29.70;99.90
64396;DHT22;50717;53.360;6.290;2023-07-09T13:21:16;29.60;99.90
64396;DHT22;50717;53.360;6.290;2023-07-09T13:23:42;29.60;99.90
64396;DHT22;50717;53.360;6.290;2023-07-09T13:26:08;28.80;99.90
64396;DHT22;50717;53.360;6.290;2023-07-09T13:28:34;29.20;99.90
64396;DHT22;50717;53.360;6.290;2023-07-09T13:31:10;29.30;99.90
64396;DHT22;50717;53.360;6.290;2023-07-09T13:33:36;29.10;99.90
64396;DHT22;50717;53.360;6.290;2023-07-09T13:36:03;28.90;99.90
64396;DHT22;50717;53.360;6.290;2023-07-09T13:38:28;28.90;99.90
64396;DHT22;50717;53.360;6.290;2023-07-09T13:40:56;29.50;99.90
64396;DHT22;50717;53.360;6.290;2023-07-09T13:43:31;29.20;99.90
64396;DHT22;50717;53.360;6.290;2023-07-09T13:45:58;28.80;99.90
64396;DHT22;50717;53.360;6.290;2023-07-09T13:48:25;28.70;99.90
64396;DHT22;50717;53.360;6.290;2023-07-09T13:50:52;28.90;99.90
64396;DHT22;50717;53.360;6.290;2023-07-09T13:53:26;29.70;99.90
64396;DHT22;50717;53.360;6.290;2023-07-09T13:55:53;29.70;99.90
64396;DHT22;50717;53.360;6.290;2023-07-09T13:58:22;30.00;99.90
64396;DHT22;50717;53.360;6.290;2023-07-09T14:00:50;29.90;99.90
64396;DHT22;50717;53.360;6.290;2023-07-09T14:03:24;29.60;99.90
64396;DHT22;50717;53.360;6.290;2023-07-09T14:05:51;29.20;99.90
64396;DHT22;50717;53.360;6.290;2023-07-09T14:08:17;28.70;99.90
64396;DHT22;50717;53.360;6.290;2023-07-09T14:10:45;28.90;99.90
64396;DHT22;50717;53.360;6.290;2023-07-09T14:13:19;28.40;99.90
64396;DHT22;50717;53.360;6.290;2023-07-09T14:15:46;28.30;99.90
64396;DHT22;50717;53.360;6.290;2023-07-09T14:18:15;28.20;99.90
64396;DHT22;50717;53.360;6.290;2023-07-09T14:20:42;27.60;99.90
64396;DHT22;50717;53.360;6.290;2023-07-09T14:23:11;27.70;99.90
64396;DHT22;50717;53.360;6.290;2023-07-09T14:25:37;27.70;99.90
64396;DHT22;50717;53.360;6.290;2023-07-09T14:28:11;27.70;99.90
64396;DHT22;50717;53.360;6.290;2023-07-09T14:30:37;27.60;99.90
64396;DHT22;50717;53.360;6.290;2023-07-09T14:33:07;27.90;99.90
64396;DHT22;50717;53.360;6.290;2023-07-09T14:35:34;27.90;99.90
64396;DHT22;50717;53.360;6.290;2023-07-09T14:38:01;27.30;99.90
64396;DHT22;50717;53.360;6.290;2023-07-09T14:40:29;26.60;99.90
64396;DHT22;50717;53.360;6.290;2023-07-09T14:42:55;26.20;99.90
64396;DHT22;50717;53.360;6.290;2023-07-09T14:45:26;26.00;99.90
64396;DHT22;50717;53.360;6.290;2023-07-09T14:47:55;25.70;99.90
64396;DHT22;50717;53.360;6.290;2023-07-09T14:50:22;25.60;99.90
64396;DHT22;50717;53.360;6.290;2023-07-09T14:52:49;25.20;99.90
64396;DHT22;50717;53.360;6.290;2023-07-09T14:55:23;25.10;99.90
64396;DHT22;50717;53.360;6.290;2023-07-09T14:57:52;24.70;99.90
64396;DHT22;50717;53.360;6.290;2023-07-09T15:00:22;24.50;99.90
64396;DHT22;50717;53.360;6.290;2023-07-09T15:02:52;24.10;99.90
64396;DHT22;50717;53.360;6.290;2023-07-09T15:05:21;23.70;99.90
64396;DHT22;50717;53.360;6.290;2023-07-09T15:07:48;23.70;99.90
64396;DHT22;50717;53.360;6.290;2023-07-09T15:10:16;23.80;99.90
64396;DHT22;50717;53.360;6.290;2023-07-09T15:12:43;23.60;99.90
64396;DHT22;50717;53.360;6.290;2023-07-09T15:17:39;23.50;99.90
64396;DHT22;50717;53.360;6.290;2023-07-09T15:20:11;23.50;99.90
64396;DHT22;50717;53.360;6.290;2023-07-09T15:22:37;23.30;99.90
64396;DHT22;50717;53.360;6.290;2023-07-09T15:25:03;23.50;99.90
64396;DHT22;50717;53.360;6.290;2023-07-09T15:27:29;22.80;99.90
64396;DHT22;50717;53.360;6.290;2023-07-09T15:29:54;23.00;99.90
64396;DHT22;50717;53.360;6.290;2023-07-09T15:32:20;22.70;99.90
64396;DHT22;50717;53.360;6.290;2023-07-09T15:34:46;22.10;99.90
64396;DHT22;50717;53.360;6.290;2023-07-09T15:37:13;21.30;99.90
64396;DHT22;50717;53.360;6.290;2023-07-09T15:39:40;20.20;99.90
64396;DHT22;50717;53.360;6.290;2023-07-09T15:42:13;19.80;99.90
64396;DHT22;50717;53.360;6.290;2023-07-09T15:44:39;19.40;99.90
64396;DHT22;50717;53.360;6.290;2023-07-09T15:47:05;19.00;99.90
64396;DHT22;50717;53.360;6.290;2023-07-09T15:49:32;19.30;99.90
64396;DHT22;50717;53.360;6.290;2023-07-09T15:51:58;19.50;99.90
64396;DHT22;50717;53.360;6.290;2023-07-09T15:54:24;19.00;99.90
64396;DHT22;50717;53.360;6.290;2023-07-09T15:56:51;18.90;99.90
64396;DHT22;50717;53.360;6.290;2023-07-09T15:59:35;19.00;99.90
64396;DHT22;50717;53.360;6.290;2023-07-09T16:02:09;19.70;99.90
64396;DHT22;50717;53.360;6.290;2023-07-09T16:04:35;19.30;99.90
64396;DHT22;50717;53.360;6.290;2023-07-09T16:07:01;19.50;99.90
64396;DHT22;50717;53.360;6.290;2023-07-09T16:09:27;19.60;99.90
64396;DHT22;50717;53.360;6.290;2023-07-09T16:11:53;19.40;99.90
64396;DHT22;50717;53.360;6.290;2023-07-09T16:14:28;19.50;99.90